createdAt,value
2023-06-10T00:00:15.390Z,0.04
2023-06-10T00:05:15.760Z,0.04
2023-06-10T00:10:15.002Z,0.04
2023-06-10T00:15:14.622Z,0.04
2023-06-10T00:20:12.139Z,0.04
2023-06-10T00:25:12.581Z,0.04
2023-06-10T00:30:12.030Z,0.04
2023-06-10T00:35:11.917Z,0.04
2023-06-10T00:40:10.386Z,0.04
2023-06-10T00:45:10.458Z,0.04
2023-06-10T00:50:09.725Z,0.04
2023-06-10T00:55:10.308Z,0.04
2023-06-10T00:59:56.578Z,0.04
2023-06-10T01:04:53.782Z,0.04
2023-06-10T01:09:54.566Z,0.04
2023-06-10T01:14:54.097Z,0.04
2023-06-10T01:19:53.290Z,0.04
2023-06-10T01:24:52.417Z,0.04
2023-06-10T01:29:51.823Z,0.04
2023-06-10T01:34:52.604Z,0.04
2023-06-10T01:39:50.140Z,0.04
2023-06-10T01:44:49.797Z,0.04
2023-06-10T01:49:49.429Z,0.04
2023-06-10T01:54:49.876Z,0.04
2023-06-10T01:59:50.973Z,0.04
2023-06-10T02:04:47.974Z,0.04
2023-06-10T02:09:47.402Z,0.04
2023-06-10T02:14:47.472Z,0.04
2023-06-10T02:19:47.053Z,0.04
2023-06-10T02:24:44.943Z,0.04
2023-06-10T02:29:44.562Z,0.04
2023-06-10T02:34:44.824Z,0.04
2023-06-10T02:39:44.720Z,0.04
2023-06-10T02:44:42.976Z,0.05
2023-06-10T02:49:42.578Z,0.05
2023-06-10T02:54:42.388Z,0.05
2023-06-10T02:59:41.850Z,0.06
2023-06-10T03:01:47.801Z,0.07
2023-06-10T03:06:14.988Z,0.09
2023-06-10T03:11:04.669Z,0.12
2023-06-10T03:16:15.685Z,0.18
2023-06-10T03:21:11.479Z,0.24
2023-06-10T03:26:11.976Z,0.27
2023-06-10T03:31:11.102Z,0.38
2023-06-10T03:36:09.513Z,0.5
2023-06-10T03:41:09.146Z,0.65
2023-06-10T03:46:09.494Z,0.83
2023-06-10T03:51:07.799Z,1.01
2023-06-10T03:55:57.405Z,1.23
2023-06-10T04:00:09.149Z,1.42
2023-06-10T04:05:10.409Z,1.68
2023-06-10T04:09:55.920Z,1.95
2023-06-10T04:14:56.319Z,2.24
2023-06-10T04:19:56.837Z,2.55
2023-06-10T04:24:56.138Z,2.88
2023-06-10T04:29:53.574Z,3.23
2023-06-10T04:34:53.694Z,3.59
2023-06-10T04:39:53.820Z,3.97
2023-06-10T04:44:54.433Z,4.37
2023-06-10T04:49:51.422Z,4.79
2023-06-10T04:54:52.042Z,5.21
2023-06-10T04:59:51.880Z,5.66
2023-06-10T05:04:51.397Z,6.11
2023-06-10T05:09:49.331Z,6.59
2023-06-10T05:14:49.572Z,7.08
2023-06-10T05:19:51.693Z,7.6
2023-06-10T05:24:49.962Z,8.14
2023-06-10T05:29:48.137Z,8.72
2023-06-10T05:34:48.768Z,9.29
2023-06-10T05:44:48.027Z,9.42
2023-06-10T05:49:48.800Z,9.28
2023-06-10T05:54:45.577Z,9.61
2023-06-10T05:59:45.865Z,9.99
2023-06-10T06:04:46.428Z,10.37
2023-06-10T06:09:45.229Z,10.76
2023-06-10T06:14:42.739Z,11.14
2023-06-10T06:19:42.466Z,11.52
2023-06-10T06:24:42.792Z,12.08
2023-06-10T06:29:42.862Z,13.56
2023-06-10T06:34:39.835Z,15.82
2023-06-10T06:39:39.225Z,16.63
2023-06-10T06:44:39.161Z,13.28
2023-06-10T06:49:38.849Z,13.59
2023-06-10T06:59:36.314Z,20.62
2023-06-10T07:01:42.348Z,20.8
2023-06-10T07:06:11.254Z,21.47
2023-06-10T07:15:56.907Z,22.72
2023-06-10T07:20:56.116Z,23.14
2023-06-10T07:40:53.270Z,26.69
2023-06-10T07:56:53.940Z,28.89
2023-06-10T08:20:16.180Z,32.19
2023-06-10T08:35:12.348Z,34.03
2023-06-10T08:40:11.668Z,34.74
2023-06-10T08:59:55.796Z,37.03
2023-06-10T09:04:54.779Z,37.53
2023-06-10T09:09:54.894Z,38.15
2023-06-10T09:14:54.299Z,38.77
2023-06-10T09:19:54.452Z,39.19
2023-06-10T09:24:55.558Z,39.92
2023-06-10T09:29:52.158Z,40.15
2023-06-10T09:34:52.272Z,40.86
2023-06-10T09:39:52.283Z,41.17
2023-06-10T09:44:51.144Z,41.75
2023-06-10T09:49:51.568Z,42.08
2023-06-10T09:54:50.709Z,42.61
2023-06-10T09:59:50.761Z,42.66
2023-06-10T10:04:51.945Z,43.25
2023-06-10T10:09:48.153Z,44.09
2023-06-10T10:14:47.729Z,43.99
2023-06-10T10:19:48.389Z,44.62
2023-06-10T10:29:45.130Z,45.48
2023-06-10T10:34:45.313Z,45.73
2023-06-10T10:39:45.049Z,45.94
2023-06-10T10:44:44.320Z,46.29
2023-06-10T10:49:43.095Z,46.8
2023-06-10T10:54:42.769Z,46.75
2023-06-10T10:59:42.477Z,46.9
2023-06-10T11:04:43.247Z,47.15
2023-06-10T11:14:40.437Z,47.47
2023-06-10T11:19:40.257Z,47.71
2023-06-10T11:24:41.028Z,47.49
2023-06-10T11:29:40.115Z,46.4
2023-06-10T11:34:40.570Z,47.5
2023-06-10T11:39:39.838Z,42.98
2023-06-10T11:44:40.475Z,47.27
2023-06-10T11:49:43.166Z,47.44
2023-06-10T11:54:36.660Z,46.99
2023-06-10T11:59:36.929Z,46.86
2023-06-10T12:01:45.708Z,47.09
2023-06-10T12:06:11.112Z,46.51
2023-06-10T12:11:13.620Z,37.57
2023-06-10T12:15:57.384Z,47.17
2023-06-10T12:20:57.179Z,46.76
2023-06-10T12:25:59.640Z,45.96
2023-06-10T12:30:54.241Z,45.9
2023-06-10T12:35:54.399Z,44.83
2023-06-10T12:40:54.801Z,45.85
2023-06-10T12:45:53.090Z,45.47
2023-06-10T12:50:53.624Z,44.96
2023-06-10T12:55:53.019Z,44.05
2023-06-10T13:05:17.103Z,42.44
2023-06-10T13:10:12.020Z,42.53
2023-06-10T13:20:12.017Z,42.08
2023-06-10T13:25:12.736Z,41.73
2023-06-10T13:40:08.748Z,39.89
2023-06-10T13:50:07.445Z,38.51
2023-06-10T13:55:07.627Z,38.11
2023-06-10T13:59:53.762Z,37.61
2023-06-10T14:04:54.284Z,35.57
2023-06-10T14:09:54.581Z,30.55
2023-06-10T14:14:51.954Z,34.91
2023-06-10T14:19:52.356Z,34.72
2023-06-10T14:24:52.646Z,33.47
2023-06-10T14:29:50.716Z,32.94
2023-06-10T14:34:51.734Z,31.6
2023-06-10T14:39:50.876Z,32
2023-06-10T14:44:50.495Z,31.37
2023-06-10T14:49:50.643Z,30.36
2023-06-10T14:54:47.777Z,30.27
2023-06-10T14:59:52.129Z,29.35
2023-06-10T15:04:47.012Z,28.7
2023-06-10T15:09:46.957Z,27.99
2023-06-10T15:14:46.297Z,27.04
2023-06-10T15:19:46.487Z,26.3
2023-06-10T15:24:46.815Z,25.3
2023-06-10T15:39:44.002Z,23.14
2023-06-10T15:44:43.126Z,22.51
2023-06-10T15:49:42.969Z,21.82
2023-06-10T15:54:48.036Z,21.16
2023-06-10T15:59:42.771Z,20.15
2023-06-10T16:01:49.110Z,20.23
2023-06-10T16:06:06.142Z,19.32
2023-06-10T16:11:07.035Z,18.73
2023-06-10T16:16:14.232Z,17.9
2023-06-10T16:21:14.293Z,17.16
2023-06-10T16:26:17.867Z,16.5
2023-06-10T16:31:14.974Z,15.76
2023-06-10T16:36:15.220Z,15.01
2023-06-10T16:41:15.365Z,14.34
2023-06-10T16:46:14.495Z,13.67
2023-06-10T16:51:14.130Z,13.05
2023-06-10T16:56:17.902Z,12.37
2023-06-10T17:00:35.042Z,11.79
2023-06-10T17:10:34.987Z,10.46
2023-06-10T17:15:34.992Z,9.8
2023-06-10T17:25:31.973Z,8.72
2023-06-10T17:35:31.172Z,7.62
2023-06-10T17:40:32.366Z,7.05
2023-06-10T17:45:32.949Z,6.54
2023-06-10T17:50:36.146Z,6.06
2023-06-10T17:55:31.924Z,5.57
2023-06-10T18:00:13.014Z,5.15
2023-06-10T18:05:13.387Z,4.71
2023-06-10T18:10:15.857Z,4.28
2023-06-10T18:15:12.105Z,3.88
2023-06-10T18:20:11.684Z,3.5
2023-06-10T18:25:11.618Z,3.13
2023-06-10T18:30:11.486Z,2.78
2023-06-10T18:35:14.853Z,2.47
2023-06-10T18:40:11.730Z,2.16
2023-06-10T18:45:09.124Z,1.88
2023-06-10T18:50:07.736Z,1.61
2023-06-10T18:55:08.411Z,1.36
2023-06-10T18:59:51.644Z,1.14
2023-06-10T19:04:51.267Z,0.94
2023-06-10T19:09:50.940Z,0.75
2023-06-10T19:14:50.946Z,0.58
2023-06-10T19:19:50.708Z,0.45
2023-06-10T19:24:48.447Z,0.33
2023-06-10T19:29:48.072Z,0.24
2023-06-10T19:34:47.624Z,0.22
2023-06-10T19:44:46.793Z,0.11
2023-06-10T19:49:46.262Z,0.08
2023-06-10T19:54:46.584Z,0.07
2023-06-10T19:59:46.313Z,0.06
2023-06-10T20:04:51.881Z,0.05
2023-06-10T20:09:43.690Z,0.05
2023-06-10T20:14:42.882Z,0.05
2023-06-10T20:19:42.898Z,0.05
2023-06-10T20:24:43.646Z,0.05
2023-06-10T20:29:42.650Z,0.05
2023-06-10T20:34:42.832Z,0.05
2023-06-10T20:39:42.341Z,0.04
2023-06-10T20:44:41.936Z,0.05
2023-06-10T20:49:55.993Z,0.05
2023-06-10T20:54:40.590Z,0.05
2023-06-10T20:59:40.312Z,0.05
2023-06-10T21:01:46.711Z,0.05
2023-06-10T21:06:14.008Z,0.05
2023-06-10T21:11:13.788Z,0.04
2023-06-10T21:16:14.117Z,0.05
2023-06-10T21:21:11.053Z,0.04
2023-06-10T21:26:12.170Z,0.05
2023-06-10T21:31:10.953Z,0.05
2023-06-10T21:36:12.124Z,0.05
2023-06-10T21:41:11.228Z,0.04
2023-06-10T21:46:13.362Z,0.04
2023-06-10T21:51:12.719Z,0.04
2023-06-10T21:56:09.746Z,0.05
2023-06-10T22:00:31.144Z,0.05
2023-06-10T22:05:30.997Z,0.04
2023-06-10T22:10:34.720Z,0.04
2023-06-10T22:15:30.401Z,0.04
2023-06-10T22:20:30.816Z,0.05
2023-06-10T22:25:40.026Z,0.04
2023-06-10T22:30:28.356Z,0.04
2023-06-10T22:35:28.300Z,0.05
2023-06-10T22:40:27.999Z,0.04
2023-06-10T22:45:28.329Z,0.04
2023-06-10T22:50:27.954Z,0.04
2023-06-10T22:55:28.171Z,0.04
2023-06-10T23:00:09.891Z,0.04
2023-06-10T23:05:09.906Z,0.04
2023-06-10T23:10:10.353Z,0.05
2023-06-10T23:15:06.564Z,0.04
2023-06-10T23:20:06.680Z,0.04
2023-06-10T23:25:05.712Z,0.04
2023-06-10T23:35:06.063Z,0.04
2023-06-10T23:40:06.110Z,0.04
2023-06-10T23:45:05.336Z,0.04
2023-06-10T23:50:05.563Z,0.05
2023-06-10T23:55:14.534Z,0.04
2023-06-10T23:59:47.162Z,0.04
